createdAt,value
2022-09-20T00:01:33.307Z,2.70
2022-09-20T00:04:05.346Z,2.80
2022-09-20T00:06:35.094Z,2.10
2022-09-20T00:09:04.856Z,3.00
2022-09-20T00:11:34.245Z,3.70
2022-09-20T00:14:03.700Z,2.60
2022-09-20T00:16:35.415Z,2.70
2022-09-20T00:19:04.426Z,2.20
2022-09-20T00:21:34.814Z,2.20
2022-09-20T00:24:03.817Z,1.80
2022-09-20T00:29:00.257Z,2.90
2022-09-20T00:31:28.339Z,4.20
2022-09-20T00:34:16.368Z,1.20
2022-09-20T00:36:45.343Z,2.10
2022-09-20T00:39:15.248Z,2.20
2022-09-20T00:41:43.291Z,3.90
2022-09-20T00:44:42.883Z,2.70
2022-09-20T00:47:18.985Z,2.10
2022-09-20T00:49:47.061Z,2.40
2022-09-20T00:52:16.769Z,2.00
2022-09-20T00:54:45.061Z,1.40
2022-09-20T00:57:13.107Z,3.70
2022-09-20T00:59:46.290Z,2.70
2022-09-20T01:02:21.844Z,2.60
2022-09-20T01:04:50.590Z,2.00
2022-09-20T01:07:25.062Z,1.70
2022-09-20T01:09:53.473Z,2.10
2022-09-20T01:12:26.437Z,3.00
2022-09-20T01:14:55.695Z,3.00
2022-09-20T01:17:27.744Z,2.60
2022-09-20T01:20:13.738Z,2.50
2022-09-20T01:23:09.513Z,2.70
2022-09-20T01:25:52.922Z,3.70
2022-09-20T01:28:21.583Z,3.00
2022-09-20T01:31:08.981Z,2.80
2022-09-20T01:33:39.548Z,4.00
2022-09-20T01:36:13.092Z,3.20
2022-09-20T01:38:40.922Z,3.50
2022-09-20T01:41:14.765Z,3.30
2022-09-20T01:43:47.999Z,3.60
2022-09-20T01:46:27.421Z,3.50
2022-09-20T01:49:07.439Z,7.00
2022-09-20T01:52:03.828Z,6.00
2022-09-20T01:54:50.436Z,3.10
2022-09-20T01:57:38.996Z,4.60
2022-09-20T02:00:12.885Z,3.70
2022-09-20T02:02:52.747Z,6.60
2022-09-20T02:05:26.951Z,5.30
2022-09-20T02:08:06.825Z,5.10
2022-09-20T02:10:50.019Z,4.80
2022-09-20T02:13:29.550Z,4.40
2022-09-20T02:16:09.988Z,5.30
2022-09-20T02:19:03.772Z,6.20
2022-09-20T02:21:50.111Z,3.70
2022-09-20T02:24:36.991Z,4.40
2022-09-20T02:27:39.012Z,3.70
2022-09-20T02:30:54.674Z,4.00
2022-09-20T02:33:43.849Z,4.40
2022-09-20T02:36:23.833Z,3.90
2022-09-20T02:39:24.096Z,2.90
2022-09-20T02:42:16.105Z,2.40
2022-09-20T02:45:06.884Z,4.00
2022-09-20T02:47:40.319Z,4.30
2022-09-20T02:50:21.094Z,3.10
2022-09-20T02:53:25.992Z,3.70
2022-09-20T02:56:34.215Z,4.20
2022-09-20T02:59:24.339Z,3.90
2022-09-20T03:02:29.110Z,5.40
2022-09-20T03:05:07.437Z,4.30
2022-09-20T03:07:49.975Z,5.00
2022-09-20T03:10:34.313Z,5.60
2022-09-20T03:13:13.455Z,2.90
2022-09-20T03:15:50.134Z,2.60
2022-09-20T03:18:33.298Z,4.10
2022-09-20T03:21:26.870Z,4.90
2022-09-20T03:24:03.761Z,4.40
2022-09-20T03:26:42.571Z,5.30
2022-09-20T03:31:53.590Z,3.60
2022-09-20T03:34:27.454Z,5.70
2022-09-20T03:37:13.667Z,3.70
2022-09-20T03:39:56.800Z,3.60
2022-09-20T03:42:34.124Z,5.40
2022-09-20T03:45:29.305Z,5.00
2022-09-20T03:48:03.038Z,3.20
2022-09-20T03:50:31.962Z,4.10
2022-09-20T03:53:18.672Z,4.60
2022-09-20T03:56:25.015Z,5.10
2022-09-20T03:59:20.244Z,13.00
2022-09-20T04:01:56.887Z,8.10
2022-09-20T04:04:55.856Z,9.60
2022-09-20T04:07:41.736Z,4.00
2022-09-20T04:10:28.272Z,5.10
2022-09-20T04:13:12.380Z,4.50
2022-09-20T04:16:11.302Z,22.10
2022-09-20T04:19:01.609Z,24.30
2022-09-20T04:21:39.817Z,6.50
2022-09-20T04:24:22.157Z,5.30
2022-09-20T04:27:01.685Z,4.60
2022-09-20T04:29:35.284Z,5.00
2022-09-20T04:32:32.472Z,7.40
2022-09-20T04:35:24.294Z,9.40
2022-09-20T04:37:53.677Z,6.20
2022-09-20T04:40:32.006Z,8.00
2022-09-20T04:43:05.718Z,10.50
2022-09-20T04:45:51.534Z,6.00
2022-09-20T04:48:44.161Z,6.30
2022-09-20T04:51:18.185Z,4.00
2022-09-20T04:54:07.977Z,9.30
2022-09-20T04:56:44.968Z,7.80
2022-09-20T04:59:32.209Z,9.40
2022-09-20T05:02:38.340Z,6.00
2022-09-20T05:05:26.938Z,4.20
2022-09-20T05:08:10.976Z,4.50
2022-09-20T05:10:53.745Z,12.10
2022-09-20T05:13:57.704Z,20.20
2022-09-20T05:16:43.995Z,10.60
2022-09-20T05:19:31.659Z,18.40
2022-09-20T05:22:27.646Z,9.50
2022-09-20T05:25:27.941Z,18.80
2022-09-20T05:28:33.176Z,24.50
2022-09-20T05:31:19.975Z,13.50
2022-09-20T05:34:19.568Z,17.50
2022-09-20T05:37:28.450Z,16.10
2022-09-20T05:40:22.182Z,12.00
2022-09-20T05:43:31.768Z,8.80
2022-09-20T05:46:21.705Z,10.70
2022-09-20T05:49:04.302Z,19.70
2022-09-20T05:51:46.164Z,11.80
2022-09-20T05:54:51.600Z,15.50
2022-09-20T05:57:35.342Z,15.80
2022-09-20T06:00:22.298Z,10.60
2022-09-20T06:03:08.652Z,10.70
2022-09-20T06:06:13.201Z,11.60
2022-09-20T06:08:49.312Z,12.20
2022-09-20T06:11:45.357Z,9.00
2022-09-20T06:14:37.031Z,7.00
2022-09-20T06:17:28.743Z,9.00
2022-09-20T06:20:18.671Z,8.40
2022-09-20T06:22:54.499Z,7.90
2022-09-20T06:25:29.951Z,6.40
2022-09-20T06:28:13.067Z,4.40
2022-09-20T06:30:47.257Z,11.30
2022-09-20T06:33:39.960Z,8.90
2022-09-20T06:36:33.743Z,6.50
2022-09-20T06:39:30.509Z,9.80
2022-09-20T06:42:00.067Z,14.20
2022-09-20T06:44:28.451Z,11.00
2022-09-20T06:46:56.501Z,13.60
2022-09-20T06:49:25.981Z,9.20
2022-09-20T06:51:55.837Z,7.60
2022-09-20T06:54:24.016Z,13.70
2022-09-20T06:56:52.142Z,11.40
2022-09-20T06:59:20.228Z,7.30
2022-09-20T07:01:48.290Z,5.20
2022-09-20T07:04:16.337Z,8.60
2022-09-20T07:06:44.358Z,6.00
2022-09-20T07:09:12.618Z,8.70
2022-09-20T07:11:40.851Z,7.10
2022-09-20T07:14:09.012Z,7.00
2022-09-20T07:16:37.332Z,4.80
2022-09-20T07:19:06.622Z,6.30
2022-09-20T07:21:34.851Z,7.10
2022-09-20T07:24:02.823Z,10.50
2022-09-20T07:26:31.939Z,6.70
2022-09-20T07:29:02.057Z,5.40
2022-09-20T07:31:30.616Z,4.50
2022-09-20T07:33:58.771Z,14.10
2022-09-20T07:36:26.907Z,9.70
2022-09-20T07:38:55.087Z,10.50
2022-09-20T07:41:23.209Z,35.40
2022-09-20T07:43:52.323Z,5.30
2022-09-20T07:46:22.282Z,40.00
2022-09-20T07:48:50.408Z,68.10
2022-09-20T07:51:18.438Z,138.60
2022-09-20T07:53:55.118Z,81.50
2022-09-20T07:56:23.417Z,63.70
2022-09-20T07:58:52.570Z,43.30
2022-09-20T08:01:22.730Z,158.30
2022-09-20T08:03:52.076Z,15.00
2022-09-20T08:06:21.504Z,13.70
2022-09-20T08:08:49.709Z,6.10
2022-09-20T08:11:23.360Z,6.10
2022-09-20T08:14:10.520Z,4.60
2022-09-20T08:16:44.838Z,6.40
2022-09-20T08:19:21.203Z,8.80
2022-09-20T08:21:51.320Z,2.80
2022-09-20T08:24:19.556Z,4.30
2022-09-20T08:26:48.580Z,12.80
2022-09-20T08:29:16.916Z,9.80
2022-09-20T08:31:45.156Z,12.70
2022-09-20T08:34:15.486Z,13.00
2022-09-20T08:36:46.800Z,13.20
2022-09-20T08:42:14.941Z,5.30
2022-09-20T08:45:00.739Z,9.20
2022-09-20T08:47:36.270Z,6.40
2022-09-20T08:50:10.195Z,2.40
2022-09-20T08:52:40.836Z,2.90
2022-09-20T08:55:17.118Z,1.70
2022-09-20T08:57:53.274Z,1.70
2022-09-20T09:00:24.590Z,4.60
2022-09-20T09:02:57.449Z,5.00
2022-09-20T09:05:37.882Z,9.40
2022-09-20T09:08:19.081Z,6.40
2022-09-20T09:10:54.930Z,11.80
2022-09-20T09:13:34.735Z,11.50
2022-09-20T09:16:12.293Z,2.40
2022-09-20T09:18:44.691Z,9.80
2022-09-20T09:21:23.517Z,8.20
2022-09-20T09:24:14.320Z,15.80
2022-09-20T09:26:43.469Z,5.70
2022-09-20T09:29:20.697Z,25.40
2022-09-20T09:31:52.283Z,14.00
2022-09-20T09:34:26.154Z,1.00
2022-09-20T09:36:55.504Z,3.30
2022-09-20T09:39:26.286Z,3.30
2022-09-20T09:41:54.642Z,10.30
2022-09-20T09:44:27.926Z,11.20
2022-09-20T09:46:57.677Z,25.30
2022-09-20T09:49:31.088Z,2.90
2022-09-20T09:52:01.701Z,12.70
2022-09-20T09:54:33.970Z,7.40
2022-09-20T09:57:18.958Z,10.60
2022-09-20T10:00:03.606Z,8.40
2022-09-20T10:03:02.814Z,4.90
2022-09-20T10:06:07.619Z,5.10
2022-09-20T10:09:00.381Z,6.40
2022-09-20T10:11:38.044Z,19.00
2022-09-20T10:14:29.658Z,6.00
2022-09-20T10:17:06.840Z,4.10
2022-09-20T10:23:39.293Z,5.30
2022-09-20T10:26:27.359Z,2.80
2022-09-20T10:29:15.698Z,4.90
2022-09-20T10:32:06.746Z,7.00
2022-09-20T10:35:08.351Z,3.20
2022-09-20T10:38:05.884Z,9.60
2022-09-20T10:40:52.296Z,10.90
2022-09-20T10:43:32.386Z,4.40
2022-09-20T10:46:32.423Z,6.10
2022-09-20T10:49:18.274Z,4.30
2022-09-20T10:51:54.331Z,6.10
2022-09-20T10:54:55.282Z,10.30
2022-09-20T10:57:32.471Z,3.20
2022-09-20T11:00:24.005Z,10.20
2022-09-20T11:03:20.861Z,10.40
2022-09-20T11:06:10.385Z,8.30
2022-09-20T11:08:40.955Z,7.90
2022-09-20T11:11:35.766Z,1.70
2022-09-20T11:14:11.990Z,5.50
2022-09-20T11:16:45.025Z,12.70
2022-09-20T11:19:27.011Z,6.00
2022-09-20T11:22:08.418Z,5.30
2022-09-20T11:24:44.108Z,8.40
2022-09-20T11:27:20.342Z,4.30
2022-09-20T11:30:02.130Z,7.60
2022-09-20T11:32:46.629Z,5.80
2022-09-20T11:35:30.447Z,4.70
2022-09-20T11:38:14.219Z,6.90
2022-09-20T11:40:57.748Z,5.30
2022-09-20T11:43:30.347Z,4.70
2022-09-20T11:46:10.130Z,7.30
2022-09-20T11:48:54.657Z,5.50
2022-09-20T11:52:00.243Z,7.90
2022-09-20T11:54:40.643Z,4.10
2022-09-20T11:57:17.376Z,6.80
2022-09-20T11:59:53.962Z,4.70
2022-09-20T12:02:31.179Z,6.10
2022-09-20T12:05:02.081Z,7.10
2022-09-20T12:07:35.083Z,5.90
2022-09-20T12:10:11.765Z,5.20
2022-09-20T12:12:44.161Z,5.30
2022-09-20T12:15:16.345Z,13.60
2022-09-20T12:17:47.402Z,4.60
2022-09-20T12:20:51.118Z,9.20
2022-09-20T12:23:40.891Z,5.00
2022-09-20T12:26:21.708Z,3.80
2022-09-20T12:28:51.126Z,2.60
2022-09-20T12:31:21.988Z,2.80
2022-09-20T12:33:59.260Z,3.20
2022-09-20T12:36:34.367Z,4.20
2022-09-20T12:39:19.073Z,6.30
2022-09-20T12:42:01.195Z,6.80
2022-09-20T12:44:39.841Z,10.60
2022-09-20T12:47:10.623Z,30.90
2022-09-20T12:49:57.246Z,8.30
2022-09-20T12:52:49.721Z,22.60
2022-09-20T12:55:25.896Z,37.10
2022-09-20T12:58:04.608Z,110.70
2022-09-20T13:00:56.029Z,49.40
2022-09-20T13:03:28.509Z,14.30
2022-09-20T13:06:12.498Z,5.70
2022-09-20T13:08:59.215Z,4.20
2022-09-20T13:11:42.140Z,16.60
2022-09-20T13:14:23.835Z,4.10
2022-09-20T13:17:14.438Z,16.10
2022-09-20T13:19:46.619Z,17.30
2022-09-20T13:22:30.404Z,4.60
2022-09-20T13:25:02.902Z,10.10
2022-09-20T13:27:35.281Z,13.80
2022-09-20T13:30:35.405Z,14.70
2022-09-20T13:33:21.505Z,3.30
2022-09-20T13:35:54.511Z,16.40
2022-09-20T13:38:25.165Z,17.30
2022-09-20T13:41:09.131Z,8.90
2022-09-20T13:43:41.666Z,5.60
2022-09-20T13:46:12.368Z,9.40
2022-09-20T13:48:40.905Z,7.50
2022-09-20T13:51:20.646Z,5.00
2022-09-20T13:53:48.872Z,9.90
2022-09-20T13:56:29.894Z,9.00
2022-09-20T13:59:05.516Z,7.80
2022-09-20T14:01:37.110Z,8.30
2022-09-20T14:04:11.360Z,11.20
2022-09-20T14:06:39.455Z,11.10
2022-09-20T14:09:11.426Z,13.30
2022-09-20T14:11:41.076Z,9.00
2022-09-20T14:14:12.402Z,7.40
2022-09-20T14:16:45.159Z,20.60
2022-09-20T14:19:16.738Z,5.30
2022-09-20T14:21:45.952Z,6.10
2022-09-20T14:24:14.182Z,5.60
2022-09-20T14:27:12.342Z,7.20
2022-09-20T14:29:51.663Z,5.70
2022-09-20T14:32:19.601Z,7.00
2022-09-20T14:35:19.174Z,11.80
2022-09-20T14:37:57.265Z,6.10
2022-09-20T14:40:43.918Z,10.10
2022-09-20T14:43:33.036Z,15.10
2022-09-20T14:46:19.435Z,5.70
2022-09-20T14:48:47.544Z,7.70
2022-09-20T14:51:16.251Z,33.10
2022-09-20T14:56:27.015Z,9.20
2022-09-20T14:59:05.662Z,8.90
2022-09-20T15:01:35.925Z,9.60
2022-09-20T15:04:20.377Z,7.60
2022-09-20T15:06:51.473Z,7.80
2022-09-20T15:09:21.751Z,6.40
2022-09-20T15:12:01.197Z,8.60
2022-09-20T15:14:30.341Z,8.50
2022-09-20T15:17:00.897Z,10.20
2022-09-20T15:19:30.544Z,6.00
2022-09-20T15:21:59.499Z,4.30
2022-09-20T15:24:32.178Z,6.30
2022-09-20T15:27:00.229Z,4.50
2022-09-20T15:29:28.309Z,13.00
2022-09-20T15:31:56.781Z,7.10
2022-09-20T15:34:24.832Z,15.20
2022-09-20T15:36:54.286Z,14.20
2022-09-20T15:39:22.756Z,14.80
2022-09-20T15:41:54.270Z,20.90
2022-09-20T15:44:22.213Z,28.60
2022-09-20T15:46:51.328Z,34.40
2022-09-20T15:49:20.815Z,13.60
2022-09-20T15:51:48.874Z,19.70
2022-09-20T15:54:17.057Z,23.30
2022-09-20T15:56:45.009Z,28.20
2022-09-20T15:59:14.700Z,36.10
2022-09-20T16:01:44.750Z,8.10
2022-09-20T16:04:19.480Z,12.20
2022-09-20T16:06:49.587Z,22.90
2022-09-20T16:09:21.673Z,17.00
2022-09-20T16:11:49.759Z,16.90
2022-09-20T16:14:17.852Z,12.30
2022-09-20T16:16:45.932Z,11.50
2022-09-20T16:19:24.025Z,10.20
2022-09-20T16:21:59.414Z,19.70
2022-09-20T16:24:34.040Z,25.20
2022-09-20T16:27:04.468Z,16.40
2022-09-20T16:29:33.447Z,19.70
2022-09-20T16:32:03.747Z,33.20
2022-09-20T16:34:34.730Z,32.10
2022-09-20T16:37:17.809Z,28.50
2022-09-20T16:39:45.819Z,20.40
2022-09-20T16:42:13.945Z,27.30
2022-09-20T16:44:43.089Z,27.80
2022-09-20T16:47:18.303Z,26.40
2022-09-20T16:49:47.317Z,26.50
2022-09-20T16:52:15.362Z,20.50
2022-09-20T16:54:43.288Z,21.00
2022-09-20T16:57:18.214Z,26.20
2022-09-20T16:59:46.838Z,25.80
2022-09-20T17:02:15.462Z,36.70
2022-09-20T17:04:43.785Z,45.80
2022-09-20T17:07:11.876Z,77.60
2022-09-20T17:09:39.922Z,62.80
2022-09-20T17:12:11.635Z,41.50
2022-09-20T17:14:39.783Z,42.90
2022-09-20T17:17:07.725Z,48.20
2022-09-20T17:19:35.704Z,65.60
2022-09-20T17:22:03.760Z,76.50
2022-09-20T17:24:31.678Z,70.70
2022-09-20T17:27:01.379Z,66.60
2022-09-20T17:29:29.342Z,52.10
2022-09-20T17:32:00.703Z,56.00
2022-09-20T17:34:34.144Z,60.60
2022-09-20T17:37:03.489Z,62.90
2022-09-20T17:39:31.643Z,67.60
2022-09-20T17:41:59.628Z,95.90
2022-09-20T17:44:28.187Z,133.00
2022-09-20T17:46:56.098Z,95.60
2022-09-20T17:49:24.457Z,103.70
2022-09-20T17:51:54.966Z,72.00
2022-09-20T17:54:24.566Z,62.30
2022-09-20T17:56:55.923Z,61.70
2022-09-20T17:59:24.900Z,60.30
2022-09-20T18:01:54.512Z,56.60
2022-09-20T18:04:24.676Z,64.80
2022-09-20T18:06:54.205Z,64.40
2022-09-20T18:09:27.183Z,68.00
2022-09-20T18:11:56.370Z,60.60
2022-09-20T18:14:28.458Z,53.80
2022-09-20T18:17:03.789Z,46.10
2022-09-20T18:19:34.523Z,40.90
2022-09-20T18:22:03.375Z,45.90
2022-09-20T18:24:32.232Z,46.90
2022-09-20T18:29:36.780Z,45.00
2022-09-20T18:32:05.502Z,54.90
2022-09-20T18:34:34.212Z,41.20
2022-09-20T18:37:03.870Z,36.90
2022-09-20T18:39:33.661Z,33.10
2022-09-20T18:42:03.369Z,27.30
2022-09-20T18:44:33.684Z,19.20
2022-09-20T18:47:03.876Z,19.90
2022-09-20T18:49:32.638Z,17.50
2022-09-20T18:54:33.419Z,14.40
2022-09-20T18:57:02.197Z,19.50
2022-09-20T18:59:30.456Z,22.20
2022-09-20T19:02:02.276Z,18.60
2022-09-20T19:04:51.942Z,16.20
2022-09-20T19:07:39.138Z,17.30
2022-09-20T19:10:07.048Z,21.90
2022-09-20T19:12:46.355Z,27.30
2022-09-20T19:15:23.333Z,17.70
2022-09-20T19:18:01.058Z,15.60
2022-09-20T19:20:45.011Z,20.60
2022-09-20T19:23:34.817Z,21.30
2022-09-20T19:26:20.271Z,22.50
2022-09-20T19:28:55.908Z,24.30
2022-09-20T19:31:30.604Z,23.10
2022-09-20T19:34:03.378Z,24.40
2022-09-20T19:36:49.756Z,25.00
2022-09-20T19:39:23.360Z,32.20
2022-09-20T19:41:51.220Z,24.60
2022-09-20T19:44:53.014Z,24.20
2022-09-20T19:47:25.343Z,18.20
2022-09-20T19:49:56.255Z,17.60
2022-09-20T19:52:24.819Z,16.50
2022-09-20T19:54:58.016Z,16.60
2022-09-20T19:57:47.187Z,15.90
2022-09-20T20:00:18.509Z,18.10
2022-09-20T20:02:47.467Z,15.50
2022-09-20T20:05:18.815Z,16.00
2022-09-20T20:08:02.362Z,17.50
2022-09-20T20:10:42.129Z,16.60
2022-09-20T20:13:34.098Z,13.50
2022-09-20T20:16:09.649Z,16.00
2022-09-20T20:18:43.734Z,19.30
2022-09-20T20:21:45.408Z,22.30
2022-09-20T20:24:41.195Z,20.30
2022-09-20T20:27:09.128Z,25.20
2022-09-20T20:29:37.086Z,19.50
2022-09-20T20:32:05.134Z,11.60
2022-09-20T20:34:34.356Z,16.80
2022-09-20T20:37:02.887Z,11.70
2022-09-20T20:39:32.224Z,8.80
2022-09-20T20:42:04.510Z,7.70
2022-09-20T20:44:35.253Z,11.40
2022-09-20T20:47:05.912Z,12.30
2022-09-20T20:49:34.704Z,13.50
2022-09-20T20:54:33.226Z,12.40
2022-09-20T20:57:03.338Z,8.70
2022-09-20T20:59:31.472Z,4.70
2022-09-20T21:02:02.410Z,6.60
2022-09-20T21:04:34.065Z,7.00
2022-09-20T21:07:02.100Z,7.50
2022-09-20T21:09:30.009Z,5.60
2022-09-20T21:11:58.004Z,6.60
2022-09-20T21:14:25.920Z,9.50
2022-09-20T21:16:53.904Z,8.00
2022-09-20T21:19:23.071Z,9.00
2022-09-20T21:21:54.623Z,9.70
2022-09-20T21:24:23.585Z,9.10
2022-09-20T21:26:51.761Z,7.80
2022-09-20T21:29:20.415Z,8.60
2022-09-20T21:31:48.400Z,11.40
2022-09-20T21:34:16.881Z,12.20
2022-09-20T21:36:45.001Z,13.70
2022-09-20T21:39:13.789Z,15.20
2022-09-20T21:41:41.842Z,12.10
2022-09-20T21:45:10.898Z,8.00
2022-09-20T21:47:38.839Z,4.70
2022-09-20T21:50:07.449Z,10.20
2022-09-20T21:52:35.364Z,6.70
2022-09-20T21:55:03.682Z,9.00
2022-09-20T21:57:31.642Z,7.10
2022-09-20T22:00:05.761Z,7.30
2022-09-20T22:02:40.508Z,4.90
2022-09-20T22:05:08.725Z,3.80
2022-09-20T22:07:41.141Z,4.50
2022-09-20T22:10:14.140Z,4.30
2022-09-20T22:12:42.050Z,5.20
2022-09-20T22:15:10.677Z,5.40
2022-09-20T22:17:38.593Z,4.90
2022-09-20T22:20:07.125Z,4.30
2022-09-20T22:22:35.152Z,4.00
2022-09-20T22:25:03.179Z,6.10
2022-09-20T22:27:31.192Z,3.70
2022-09-20T22:30:04.038Z,5.90
2022-09-20T22:32:32.928Z,10.00
2022-09-20T22:35:00.897Z,5.50
2022-09-20T22:37:32.165Z,6.40
2022-09-20T22:40:03.339Z,5.50
2022-09-20T22:42:31.355Z,6.60
2022-09-20T22:45:00.295Z,6.10
2022-09-20T22:47:31.628Z,5.20
2022-09-20T22:49:59.621Z,6.20
2022-09-20T22:52:32.155Z,3.80
2022-09-20T22:55:00.074Z,5.00
2022-09-20T22:57:28.307Z,4.90
2022-09-20T22:59:56.342Z,5.40
2022-09-20T23:02:24.291Z,5.10
2022-09-20T23:04:52.270Z,8.30
2022-09-20T23:07:20.236Z,5.50
2022-09-20T23:09:53.182Z,4.40
2022-09-20T23:12:21.132Z,4.50
2022-09-20T23:14:49.062Z,5.20
2022-09-20T23:17:16.969Z,5.00
2022-09-20T23:19:44.933Z,4.10
2022-09-20T23:22:12.952Z,4.00
2022-09-20T23:24:40.891Z,4.10
2022-09-20T23:27:08.869Z,2.90
2022-09-20T23:29:36.936Z,3.40
2022-09-20T23:32:09.924Z,3.00
2022-09-20T23:34:37.996Z,3.80
2022-09-20T23:37:06.874Z,3.30
2022-09-20T23:42:07.253Z,4.20
2022-09-20T23:44:35.236Z,2.10
2022-09-20T23:47:08.466Z,3.70
2022-09-20T23:49:36.827Z,2.70
2022-09-20T23:52:04.910Z,3.10
2022-09-20T23:54:32.916Z,2.70
2022-09-20T23:57:05.972Z,2.30
2022-09-20T23:59:34.211Z,2.60
